Time;durP1;ratioP1;P1;durP2;ratioP2;P2;SDS_P1;SDS_P2;PMS_P1;PMS_P2;Temp;Humidity;BMP_temperature;BMP_pressure;BME280_temperature;BME280_humidity;BME280_pressure;Samples;Min_cycle;Max_cycle;Signal;HPM_P1;HPM_P2
2023/04/16 00:00:22;;;;;;;6.77;5.83;;;10.40;99.90;;;;;;7386386;19;20130;-74
2023/04/16 00:02:47;;;;;;;8.10;6.03;;;10.40;99.90;;;;;;7385177;19;20141;-75
2023/04/16 00:05:14;;;;;;;7.87;6.10;;;10.30;99.90;;;;;;7385920;19;20130;-75
2023/04/16 00:07:40;;;;;;;8.43;5.90;;;10.40;99.90;;;;;;7385479;19;20134;-74
2023/04/16 00:10:06;;;;;;;6.70;5.93;;;10.40;99.90;;;;;;7391672;19;20138;-75
2023/04/16 00:12:32;;;;;;;6.67;5.83;;;10.50;99.90;;;;;;7393002;19;20131;-74
2023/04/16 00:14:58;;;;;;;8.47;7.07;;;10.50;99.90;;;;;;7391645;19;20149;-76
2023/04/16 00:17:24;;;;;;;8.07;6.40;;;10.50;99.90;;;;;;7393351;19;20130;-75
2023/04/16 00:19:50;;;;;;;6.80;5.93;;;10.50;99.90;;;;;;7392674;19;20151;-75
2023/04/16 00:22:16;;;;;;;7.67;6.20;;;10.40;99.90;;;;;;7393116;19;20150;-75
2023/04/16 00:24:41;;;;;;;8.40;6.10;;;10.40;99.90;;;;;;7392202;19;20144;-75
2023/04/16 00:27:07;;;;;;;6.63;5.07;;;10.50;99.90;;;;;;7394019;19;20613;-74
2023/04/16 00:29:33;;;;;;;8.13;6.07;;;10.50;99.90;;;;;;7394213;19;20206;-75
2023/04/16 00:31:59;;;;;;;6.67;5.97;;;10.40;99.90;;;;;;7392124;19;20195;-75
2023/04/16 00:34:25;;;;;;;7.30;5.10;;;10.40;99.90;;;;;;7391764;19;20609;-73
2023/04/16 00:36:51;;;;;;;6.47;5.60;;;10.30;99.90;;;;;;7394508;19;20133;-74
2023/04/16 00:39:17;;;;;;;7.27;5.73;;;10.50;99.90;;;;;;7391560;19;20206;-75
2023/04/16 00:41:43;;;;;;;7.20;5.60;;;10.40;99.90;;;;;;7391505;19;20516;-75
2023/04/16 00:44:09;;;;;;;8.80;6.00;;;10.40;99.90;;;;;;7392137;19;20139;-75
2023/04/16 00:46:36;;;;;;;7.47;5.97;;;10.40;99.90;;;;;;7385046;19;20146;-74
2023/04/16 00:49:02;;;;;;;7.07;6.30;;;10.40;99.90;;;;;;7391842;19;20611;-74
2023/04/16 00:51:29;;;;;;;8.10;6.10;;;10.20;99.90;;;;;;7395019;19;20230;-74
2023/04/16 00:53:56;;;;;;;6.90;5.97;;;10.40;99.90;;;;;;7389662;19;20171;-74
2023/04/16 00:56:23;;;;;;;6.10;5.27;;;10.40;99.90;;;;;;7392885;19;20161;-74
2023/04/16 00:58:50;;;;;;;6.77;6.03;;;10.20;99.90;;;;;;7388927;19;20700;-76
2023/04/16 01:01:16;;;;;;;6.20;5.60;;;10.30;99.90;;;;;;7392108;19;20550;-74
2023/04/16 01:03:45;;;;;;;7.37;5.80;;;10.30;99.90;;;;;;7390949;19;20131;-75
2023/04/16 01:06:11;;;;;;;6.77;5.67;;;10.40;99.90;;;;;;7394015;19;20135;-72
2023/04/16 01:08:37;;;;;;;6.33;5.37;;;10.40;99.90;;;;;;7393545;19;20139;-75
2023/04/16 01:11:03;;;;;;;7.77;5.93;;;10.50;99.90;;;;;;7394137;19;20206;-76
2023/04/16 01:13:29;;;;;;;6.37;5.27;;;10.40;99.90;;;;;;7387886;19;20150;-75
2023/04/16 01:15:55;;;;;;;7.03;5.87;;;10.30;99.90;;;;;;7392033;19;20196;-75
2023/04/16 01:18:23;;;;;;;6.13;5.53;;;10.40;99.90;;;;;;7390104;19;20135;-74
2023/04/16 01:20:50;;;;;;;6.40;5.70;;;10.40;99.90;;;;;;7389672;19;20149;-76
2023/04/16 01:23:19;;;;;;;7.10;5.63;;;10.50;99.90;;;;;;7391064;19;20515;-74
2023/04/16 01:25:46;;;;;;;5.97;5.33;;;10.50;99.90;;;;;;7391922;19;20139;-75
2023/04/16 01:28:11;;;;;;;6.70;5.17;;;10.40;99.90;;;;;;7391649;19;20149;-74
2023/04/16 01:30:37;;;;;;;6.10;5.40;;;10.40;99.90;;;;;;7392140;19;20142;-76
2023/04/16 01:33:03;;;;;;;6.93;5.47;;;10.50;99.90;;;;;;7390550;19;20135;-75
2023/04/16 01:35:29;;;;;;;7.00;5.37;;;10.40;99.90;;;;;;7390355;19;20138;-75
2023/04/16 01:37:55;;;;;;;5.87;5.20;;;10.50;99.90;;;;;;7388699;19;20174;-75
2023/04/16 01:40:21;;;;;;;6.03;5.00;;;10.50;99.90;;;;;;7389825;19;20146;-75
2023/04/16 01:42:47;;;;;;;6.53;5.50;;;10.30;99.90;;;;;;7392103;19;20258;-74
2023/04/16 01:45:13;;;;;;;7.27;4.80;;;10.40;99.90;;;;;;7392152;19;20204;-74
2023/04/16 01:47:39;;;;;;;5.60;4.73;;;10.40;99.90;;;;;;7389024;19;20624;-74
2023/04/16 01:50:06;;;;;;;5.17;4.50;;;10.40;99.90;;;;;;7389540;19;20153;-74
2023/04/16 01:52:31;;;;;;;5.80;4.60;;;10.50;99.90;;;;;;7387307;19;20143;-75
2023/04/16 01:54:57;;;;;;;5.20;4.70;;;10.40;99.90;;;;;;7391434;19;20141;-75
2023/04/16 01:57:23;;;;;;;5.60;4.73;;;10.30;99.90;;;;;;7387025;19;20206;-74
2023/04/16 01:59:48;;;;;;;5.63;4.53;;;10.30;99.90;;;;;;7391927;19;20138;-74
2023/04/16 02:02:15;;;;;;;7.23;4.90;;;10.30;99.90;;;;;;7389282;19;21555;-75
2023/04/16 02:04:44;;;;;;;4.77;4.00;;;10.40;99.90;;;;;;7388882;19;20147;-75
2023/04/16 02:07:10;;;;;;;6.07;4.70;;;10.40;99.90;;;;;;7389186;19;20194;-74
2023/04/16 02:09:39;;;;;;;6.07;4.90;;;10.20;99.90;;;;;;7390956;19;20161;-74
2023/04/16 02:12:06;;;;;;;5.50;4.07;;;10.20;99.90;;;;;;7389203;19;20161;-75
2023/04/16 02:14:32;;;;;;;5.77;4.77;;;10.20;99.90;;;;;;7388612;19;20177;-75
2023/04/16 02:16:59;;;;;;;5.37;4.37;;;10.30;99.90;;;;;;7389639;19;20169;-75
2023/04/16 02:19:25;;;;;;;4.83;4.33;;;10.40;99.90;;;;;;7388871;19;20146;-75
2023/04/16 02:21:52;;;;;;;7.13;4.60;;;10.30;99.90;;;;;;7383827;19;20154;-74
2023/04/16 02:24:18;;;;;;;5.63;4.77;;;10.30;99.90;;;;;;7389038;19;20157;-75
2023/04/16 02:26:44;;;;;;;5.17;4.43;;;10.40;99.90;;;;;;7389024;19;20214;-75
2023/04/16 02:29:10;;;;;;;5.50;4.73;;;10.30;99.90;;;;;;7390173;19;20190;-75
2023/04/16 02:31:37;;;;;;;5.27;4.53;;;10.30;99.90;;;;;;7388054;19;20596;-75
2023/04/16 02:34:04;;;;;;;6.13;5.10;;;10.10;99.90;;;;;;7387521;19;20143;-75
2023/04/16 02:36:30;;;;;;;6.70;5.00;;;10.30;99.90;;;;;;7389118;19;20135;-75
2023/04/16 02:38:57;;;;;;;5.93;4.60;;;10.20;99.90;;;;;;7387319;19;20146;-75
2023/04/16 02:41:23;;;;;;;5.87;4.70;;;10.10;99.90;;;;;;7388057;19;20150;-75
2023/04/16 02:43:48;;;;;;;5.23;4.60;;;10.20;99.90;;;;;;7386234;19;20150;-75
2023/04/16 02:46:14;;;;;;;5.97;4.63;;;10.10;99.90;;;;;;7389251;19;20154;-76
2023/04/16 02:48:40;;;;;;;5.57;4.67;;;10.10;99.90;;;;;;7387906;19;20156;-75
2023/04/16 02:51:06;;;;;;;6.93;5.27;;;10.20;99.90;;;;;;7390274;19;20134;-76
2023/04/16 02:53:31;;;;;;;7.10;5.63;;;10.30;99.90;;;;;;7388267;19;20603;-76
2023/04/16 02:55:57;;;;;;;5.57;4.93;;;10.30;99.90;;;;;;7387148;19;20145;-74
2023/04/16 02:58:25;;;;;;;7.00;5.13;;;10.20;99.90;;;;;;7389171;19;20139;-75
2023/04/16 03:00:51;;;;;;;6.30;5.13;;;10.10;99.90;;;;;;7388179;19;20134;-75
2023/04/16 03:03:18;;;;;;;7.23;5.57;;;10.00;99.90;;;;;;7389340;19;20144;-75
2023/04/16 03:05:45;;;;;;;5.60;4.70;;;10.10;99.90;;;;;;7388746;19;20548;-75
2023/04/16 03:08:11;;;;;;;6.53;5.17;;;10.00;99.90;;;;;;7387515;19;20165;-74
2023/04/16 03:10:37;;;;;;;6.13;4.93;;;10.10;99.90;;;;;;7386892;19;21015;-75
2023/04/16 03:13:03;;;;;;;7.17;4.90;;;10.20;99.90;;;;;;7386783;19;20134;-75
2023/04/16 03:15:30;;;;;;;6.83;5.43;;;10.20;99.90;;;;;;7388559;19;20145;-75
2023/04/16 03:17:56;;;;;;;7.83;5.50;;;10.10;99.90;;;;;;7387356;19;20162;-75
2023/04/16 03:20:22;;;;;;;6.87;5.70;;;10.20;99.90;;;;;;7386349;19;20498;-75
2023/04/16 03:22:48;;;;;;;7.53;5.70;;;10.20;99.90;;;;;;7386301;19;20118;-75
2023/04/16 03:25:14;;;;;;;7.33;5.87;;;10.10;99.90;;;;;;7386194;19;20126;-77
2023/04/16 03:27:40;;;;;;;6.37;5.33;;;10.20;99.90;;;;;;7388614;19;20141;-75
2023/04/16 03:30:07;;;;;;;5.43;4.87;;;10.10;99.90;;;;;;7386115;19;20133;-76
2023/04/16 03:32:33;;;;;;;7.37;6.10;;;10.20;99.90;;;;;;7386091;19;20456;-75
2023/04/16 03:34:59;;;;;;;8.23;6.00;;;10.30;99.90;;;;;;7384713;19;20133;-75
2023/04/16 03:37:25;;;;;;;7.33;5.97;;;10.40;99.90;;;;;;7390443;19;20135;-75
2023/04/16 03:39:50;;;;;;;8.63;6.53;;;10.20;99.90;;;;;;7386705;19;20174;-75
2023/04/16 03:42:16;;;;;;;8.63;6.67;;;10.10;99.90;;;;;;7385668;19;20573;-75
2023/04/16 03:44:42;;;;;;;7.20;5.83;;;10.20;99.90;;;;;;7391328;19;20169;-75
2023/04/16 03:47:07;;;;;;;8.43;6.17;;;10.10;99.90;;;;;;7396359;19;20134;-75
2023/04/16 03:49:33;;;;;;;8.53;6.50;;;10.30;99.90;;;;;;7391468;19;20150;-76
2023/04/16 03:52:00;;;;;;;8.30;6.20;;;10.20;99.90;;;;;;7393337;19;20177;-76
2023/04/16 03:54:26;;;;;;;12.17;6.47;;;10.10;99.90;;;;;;7391783;19;20504;-76
2023/04/16 03:56:51;;;;;;;9.20;6.37;;;10.10;99.90;;;;;;7394335;19;20149;-76
2023/04/16 03:59:19;;;;;;;7.90;5.80;;;10.20;99.90;;;;;;7392808;19;20134;-75
2023/04/16 04:01:45;;;;;;;7.63;6.00;;;10.20;99.90;;;;;;7393985;19;20131;-76
2023/04/16 04:04:10;;;;;;;9.20;6.33;;;10.10;99.90;;;;;;7392880;19;20142;-75
2023/04/16 04:06:36;;;;;;;9.00;6.67;;;10.10;99.90;;;;;;7393849;19;20149;-75
2023/04/16 04:09:02;;;;;;;8.90;6.67;;;10.10;99.90;;;;;;7391753;19;20202;-75
2023/04/16 04:11:28;;;;;;;9.57;7.10;;;10.10;99.90;;;;;;7394448;19;20237;-76
2023/04/16 04:13:54;;;;;;;8.67;6.50;;;10.10;99.90;;;;;;7390495;19;20170;-76
2023/04/16 04:16:20;;;;;;;8.07;6.27;;;10.10;99.90;;;;;;7394424;19;20702;-76
2023/04/16 04:18:45;;;;;;;9.03;6.87;;;9.90;99.90;;;;;;7394641;19;20138;-75
2023/04/16 04:21:11;;;;;;;8.20;6.43;;;9.90;99.90;;;;;;7393840;19;20155;-76
2023/04/16 04:23:37;;;;;;;9.20;6.73;;;10.00;99.90;;;;;;7393226;19;20162;-74
2023/04/16 04:26:04;;;;;;;7.93;6.07;;;10.10;99.90;;;;;;7393168;19;20177;-75
2023/04/16 04:28:33;;;;;;;8.30;5.97;;;10.20;99.90;;;;;;7392678;19;20131;-75
2023/04/16 04:31:00;;;;;;;9.20;6.30;;;10.10;99.90;;;;;;7392713;19;20239;-75
2023/04/16 04:33:26;;;;;;;7.43;5.97;;;10.10;99.90;;;;;;7389826;19;20655;-75
2023/04/16 04:35:56;;;;;;;8.67;6.20;;;10.10;99.90;;;;;;7393438;19;20451;-75
2023/04/16 04:38:24;;;;;;;7.13;5.37;;;10.10;99.90;;;;;;7392804;19;20155;-74
2023/04/16 04:40:53;;;;;;;6.97;5.37;;;10.20;99.90;;;;;;7393309;19;20211;-76
2023/04/16 04:43:19;;;;;;;8.17;5.93;;;10.20;99.90;;;;;;7393982;19;20142;-75
2023/04/16 04:45:45;;;;;;;7.77;5.90;;;10.10;99.90;;;;;;7391526;19;20135;-75
2023/04/16 04:48:11;;;;;;;8.77;6.53;;;10.20;99.90;;;;;;7391391;19;20150;-76
2023/04/16 04:50:37;;;;;;;9.10;6.43;;;10.20;99.90;;;;;;7393173;19;20123;-76
2023/04/16 04:53:08;;;;;;;10.27;6.67;;;10.20;99.90;;;;;;7391215;19;20170;-76
2023/04/16 04:55:38;;;;;;;8.93;6.77;;;10.20;99.90;;;;;;7388408;19;20155;-75
2023/04/16 04:58:05;;;;;;;7.97;5.93;;;10.10;99.90;;;;;;7393526;19;20154;-74
2023/04/16 05:00:32;;;;;;;8.67;6.53;;;10.10;99.90;;;;;;7393312;19;20141;-75
2023/04/16 05:03:00;;;;;;;7.37;5.80;;;10.10;99.90;;;;;;7391918;19;20131;-75
2023/04/16 05:05:26;;;;;;;8.73;6.80;;;10.10;99.90;;;;;;7393753;19;20131;-75
2023/04/16 05:07:52;;;;;;;9.03;6.07;;;10.10;99.90;;;;;;7392964;19;20135;-75
2023/04/16 05:10:18;;;;;;;10.23;6.33;;;10.20;99.90;;;;;;7392205;19;20173;-75
2023/04/16 05:12:46;;;;;;;6.93;6.10;;;10.10;99.90;;;;;;7391203;19;20218;-76
2023/04/16 05:15:12;;;;;;;9.43;6.90;;;10.20;99.90;;;;;;7393785;19;20142;-75
2023/04/16 05:17:37;;;;;;;7.97;5.67;;;10.20;99.90;;;;;;7391821;19;20138;-75
2023/04/16 05:20:03;;;;;;;9.53;6.43;;;10.10;99.90;;;;;;7391402;19;20141;-75
2023/04/16 05:22:29;;;;;;;9.07;6.50;;;10.10;99.90;;;;;;7391022;19;20450;-76
2023/04/16 05:24:57;;;;;;;7.83;5.83;;;10.00;99.90;;;;;;7393474;19;20135;-75
2023/04/16 05:27:23;;;;;;;8.83;6.80;;;10.10;99.90;;;;;;7390719;19;20138;-76
2023/04/16 05:29:49;;;;;;;8.80;6.27;;;10.10;99.90;;;;;;7392135;19;20138;-75
2023/04/16 05:32:15;;;;;;;9.43;6.97;;;10.00;99.90;;;;;;7391700;19;20135;-74
2023/04/16 05:34:41;;;;;;;12.07;8.00;;;10.10;99.90;;;;;;7390379;19;20610;-76
2023/04/16 05:37:06;;;;;;;11.97;8.63;;;10.00;99.90;;;;;;7391729;19;20130;-75
2023/04/16 05:39:32;;;;;;;13.17;9.53;;;10.00;99.90;;;;;;7393406;19;20135;-76
2023/04/16 05:41:58;;;;;;;14.10;9.90;;;10.00;99.90;;;;;;7391026;19;20247;-75
2023/04/16 05:44:24;;;;;;;13.43;9.47;;;10.10;99.90;;;;;;7390233;19;20138;-75
2023/04/16 05:46:50;;;;;;;13.60;9.27;;;10.10;99.90;;;;;;7390054;19;20138;-76
2023/04/16 05:49:17;;;;;;;15.83;9.70;;;10.00;99.90;;;;;;7391894;19;20171;-75
2023/04/16 05:51:43;;;;;;;15.13;10.57;;;10.00;99.90;;;;;;7389870;19;20495;-74
2023/04/16 05:54:09;;;;;;;16.73;10.97;;;10.10;99.90;;;;;;7388321;19;20138;-75
2023/04/16 05:56:35;;;;;;;16.70;11.43;;;10.00;99.90;;;;;;7389684;19;20581;-75
2023/04/16 05:59:00;;;;;;;17.23;11.90;;;9.90;99.90;;;;;;7391275;19;20755;-76
2023/04/16 06:01:26;;;;;;;16.10;11.53;;;10.10;99.90;;;;;;7389435;19;20639;-76
2023/04/16 06:03:52;;;;;;;16.03;11.97;;;9.90;99.90;;;;;;7391086;19;20134;-76
2023/04/16 06:06:17;;;;;;;15.83;11.30;;;10.10;99.90;;;;;;7386405;19;20491;-75
2023/04/16 06:08:43;;;;;;;18.03;12.23;;;10.10;99.90;;;;;;7388326;19;20135;-77
2023/04/16 06:11:09;;;;;;;17.33;12.40;;;10.10;99.90;;;;;;7390202;19;20138;-76
2023/04/16 06:13:35;;;;;;;20.10;12.60;;;10.20;99.90;;;;;;7385848;19;20154;-76
2023/04/16 06:16:01;;;;;;;19.43;13.00;;;10.20;99.90;;;;;;7389115;19;20142;-76
2023/04/16 06:18:26;;;;;;;18.87;12.70;;;10.00;99.90;;;;;;7390069;19;20178;-75
2023/04/16 06:20:52;;;;;;;17.03;12.60;;;10.00;99.90;;;;;;7390348;19;20165;-76
2023/04/16 06:23:18;;;;;;;18.23;12.90;;;9.90;99.90;;;;;;7387714;19;20150;-76
2023/04/16 06:25:44;;;;;;;17.40;12.43;;;9.90;99.90;;;;;;7388180;19;20134;-76
2023/04/16 06:28:09;;;;;;;18.60;11.87;;;10.00;99.90;;;;;;7388724;19;20142;-75
2023/04/16 06:30:35;;;;;;;22.97;13.00;;;10.00;99.90;;;;;;7388340;19;20239;-76
2023/04/16 06:33:01;;;;;;;17.47;12.63;;;10.20;99.90;;;;;;7389294;19;20142;-76
2023/04/16 06:35:27;;;;;;;17.30;11.87;;;10.20;99.90;;;;;;7387962;19;20142;-76
2023/04/16 06:37:52;;;;;;;17.10;11.63;;;9.70;99.90;;;;;;7388025;19;20146;-76
2023/04/16 06:40:18;;;;;;;18.10;11.93;;;9.80;99.90;;;;;;7386011;19;20131;-75
2023/04/16 06:42:44;;;;;;;19.00;12.20;;;9.90;99.90;;;;;;7387662;19;20150;-76
2023/04/16 06:45:10;;;;;;;18.73;12.20;;;10.10;99.90;;;;;;7385832;19;20130;-76
2023/04/16 06:47:36;;;;;;;21.77;11.87;;;10.10;99.90;;;;;;7389856;19;20138;-76
2023/04/16 06:50:01;;;;;;;19.57;13.07;;;10.20;99.90;;;;;;7388735;19;20134;-76
2023/04/16 06:52:28;;;;;;;19.13;12.47;;;10.20;99.90;;;;;;7390001;19;20581;-76
2023/04/16 06:54:55;;;;;;;18.00;12.43;;;10.10;99.90;;;;;;7385440;19;20131;-75
2023/04/16 06:57:20;;;;;;;19.47;12.47;;;10.10;99.90;;;;;;7389411;19;20150;-76
2023/04/16 06:59:46;;;;;;;18.57;13.23;;;10.10;99.90;;;;;;7389662;19;20138;-76
2023/04/16 07:02:12;;;;;;;17.57;11.97;;;10.30;99.90;;;;;;7389840;19;20137;-75
2023/04/16 07:04:38;;;;;;;18.93;12.33;;;10.20;99.90;;;;;;7387594;19;20122;-76
2023/04/16 07:07:03;;;;;;;16.10;11.20;;;10.20;99.90;;;;;;7390625;19;20142;-76
2023/04/16 07:09:29;;;;;;;17.70;13.00;;;10.20;99.90;;;;;;7387960;19;20162;-77
2023/04/16 07:11:55;;;;;;;19.97;12.67;;;10.20;99.90;;;;;;7386762;19;20141;-76
2023/04/16 07:14:20;;;;;;;19.17;13.03;;;10.30;99.90;;;;;;7386183;19;20138;-75
2023/04/16 07:16:46;;;;;;;17.30;12.43;;;10.30;99.90;;;;;;7384922;19;20143;-75
2023/04/16 07:19:12;;;;;;;17.63;11.83;;;10.30;99.90;;;;;;7382384;19;20171;-75
2023/04/16 07:21:38;;;;;;;18.70;12.60;;;10.40;99.90;;;;;;7385774;19;20168;-75
2023/04/16 07:24:04;;;;;;;16.97;12.07;;;10.30;99.90;;;;;;7377534;19;20135;-76
2023/04/16 07:26:29;;;;;;;15.47;11.13;;;10.30;99.90;;;;;;7384419;19;20197;-75
2023/04/16 07:28:55;;;;;;;17.07;11.50;;;10.40;99.90;;;;;;7385513;19;20278;-75
2023/04/16 07:31:22;;;;;;;19.30;13.17;;;10.20;99.90;;;;;;7384117;19;20500;-76
2023/04/16 07:33:48;;;;;;;16.93;11.37;;;10.40;99.90;;;;;;7379654;19;20137;-80
2023/04/16 07:36:14;;;;;;;16.80;11.87;;;10.50;99.90;;;;;;7383937;19;20135;-77
2023/04/16 07:38:40;;;;;;;15.93;11.60;;;10.30;99.90;;;;;;7383167;19;20134;-78
2023/04/16 07:41:07;;;;;;;17.47;11.40;;;10.40;99.90;;;;;;7385133;19;20610;-80
2023/04/16 07:43:33;;;;;;;16.33;11.23;;;10.50;99.90;;;;;;7388111;19;20142;-79
2023/04/16 07:45:58;;;;;;;15.93;10.87;;;10.50;99.90;;;;;;7384324;19;20131;-78
2023/04/16 07:48:24;;;;;;;14.47;10.50;;;10.60;99.90;;;;;;7386192;19;20217;-79
2023/04/16 07:50:50;;;;;;;14.43;10.57;;;10.40;99.90;;;;;;7382163;19;20144;-78
2023/04/16 07:53:16;;;;;;;17.53;11.53;;;10.10;99.90;;;;;;7380346;19;20166;-79
2023/04/16 07:55:41;;;;;;;17.60;11.53;;;10.30;99.90;;;;;;7382956;19;20941;-78
2023/04/16 07:58:08;;;;;;;16.07;11.17;;;10.40;99.90;;;;;;7383542;19;20201;-78
2023/04/16 08:00:34;;;;;;;15.30;10.87;;;10.40;99.90;;;;;;7385275;19;20150;-79
2023/04/16 08:03:00;;;;;;;15.53;11.47;;;10.40;99.90;;;;;;7387042;19;20137;-79
2023/04/16 08:05:26;;;;;;;16.67;10.37;;;10.40;99.90;;;;;;7389035;19;20467;-78
2023/04/16 08:07:51;;;;;;;14.40;10.50;;;10.40;99.90;;;;;;7386574;19;20146;-78
2023/04/16 08:10:20;;;;;;;15.00;11.23;;;10.30;99.90;;;;;;7384139;19;20143;-78
2023/04/16 08:12:47;;;;;;;16.97;11.53;;;10.30;99.90;;;;;;7386491;19;20842;-80
2023/04/16 08:15:12;;;;;;;15.03;10.70;;;10.40;99.90;;;;;;7385654;19;20167;-78
2023/04/16 08:17:38;;;;;;;14.93;10.13;;;10.50;99.90;;;;;;7382970;19;20138;-75
2023/04/16 08:20:05;;;;;;;13.13;9.03;;;10.40;99.90;;;;;;7385221;19;20146;-75
2023/04/16 08:22:32;;;;;;;15.10;9.30;;;10.10;99.90;;;;;;7382131;19;20142;-75
2023/04/16 08:24:58;;;;;;;14.10;9.67;;;10.30;99.90;;;;;;7385779;19;20592;-76
2023/04/16 08:27:25;;;;;;;13.40;9.87;;;10.40;99.90;;;;;;7384317;19;20159;-79
2023/04/16 08:29:50;;;;;;;15.17;10.03;;;10.50;99.90;;;;;;7390293;19;20130;-79
2023/04/16 08:32:16;;;;;;;14.47;9.70;;;10.60;99.90;;;;;;7391739;19;20154;-75
2023/04/16 08:34:42;;;;;;;14.87;9.37;;;10.60;99.90;;;;;;7391138;19;20162;-75
2023/04/16 08:37:09;;;;;;;14.27;9.73;;;10.50;99.90;;;;;;7393179;19;20199;-77
2023/04/16 08:39:34;;;;;;;11.23;9.27;;;10.50;99.90;;;;;;7394681;19;20174;-80
2023/04/16 08:42:04;;;;;;;14.60;9.47;;;10.60;99.90;;;;;;7391529;19;20490;-75
2023/04/16 08:44:32;;;;;;;13.20;9.30;;;10.40;99.90;;;;;;7391659;19;20142;-74
2023/04/16 08:47:00;;;;;;;14.87;9.00;;;10.40;99.90;;;;;;7393871;19;20158;-75
2023/04/16 08:49:27;;;;;;;14.20;9.63;;;10.40;99.90;;;;;;7392529;19;20147;-74
2023/04/16 08:51:54;;;;;;;14.47;9.77;;;10.50;99.90;;;;;;7393922;19;20213;-77
2023/04/16 08:54:58;;;;;;;14.37;9.63;;;10.60;99.90;;;;;;7390408;19;20858;-76
2023/04/16 08:57:35;;;;;;;14.93;10.00;;;10.60;99.90;;;;;;7390811;19;20164;-77
2023/04/16 09:00:02;;;;;;;14.43;10.17;;;10.70;99.90;;;;;;7389202;19;20565;-76
2023/04/16 09:02:30;;;;;;;14.67;10.20;;;10.60;99.90;;;;;;7392135;19;20141;-75
2023/04/16 09:04:58;;;;;;;14.60;9.30;;;10.80;99.90;;;;;;7390805;19;20626;-76
2023/04/16 09:07:26;;;;;;;12.50;8.97;;;10.90;99.90;;;;;;7393472;19;20753;-77
2023/04/16 09:09:56;;;;;;;11.90;8.60;;;10.80;99.90;;;;;;7392653;19;20138;-76
2023/04/16 09:12:25;;;;;;;14.20;9.87;;;10.90;99.90;;;;;;7386828;19;20155;-77
2023/04/16 09:14:51;;;;;;;13.97;9.50;;;10.90;99.90;;;;;;7389631;19;20159;-76
2023/04/16 09:17:18;;;;;;;13.23;9.27;;;11.00;99.90;;;;;;7391837;19;20138;-76
2023/04/16 09:19:45;;;;;;;14.37;10.13;;;10.90;99.90;;;;;;7390838;19;20184;-75
2023/04/16 09:22:11;;;;;;;16.17;9.33;;;10.90;99.90;;;;;;7390917;19;20139;-77
2023/04/16 09:24:37;;;;;;;13.50;9.27;;;10.90;99.90;;;;;;7391033;19;20198;-77
2023/04/16 09:27:03;;;;;;;12.30;8.43;;;10.70;99.90;;;;;;7390221;19;20186;-78
2023/04/16 09:29:40;;;;;;;15.90;9.50;;;11.00;99.90;;;;;;7391804;19;20142;-76
2023/04/16 09:32:08;;;;;;;12.93;8.63;;;11.00;99.90;;;;;;7388978;19;20179;-77
2023/04/16 09:34:53;;;;;;;13.87;9.03;;;11.00;99.90;;;;;;7388322;19;20139;-77
2023/04/16 09:37:18;;;;;;;13.50;9.93;;;11.10;99.90;;;;;;7390436;19;20154;-77
2023/04/16 09:40:01;;;;;;;13.07;9.20;;;11.00;99.90;;;;;;7390433;19;20162;-76
2023/04/16 09:42:32;;;;;;;13.40;8.60;;;11.10;99.90;;;;;;7385913;19;20159;-77
2023/04/16 09:44:59;;;;;;;14.27;9.60;;;11.20;99.90;;;;;;7391414;19;20145;-74
2023/04/16 09:47:37;;;;;;;16.03;9.63;;;11.10;99.90;;;;;;7390172;19;20139;-76
2023/04/16 09:50:02;;;;;;;14.40;9.17;;;11.10;99.90;;;;;;7392577;19;20161;-76
2023/04/16 09:52:28;;;;;;;14.97;9.87;;;11.00;99.90;;;;;;7391689;19;20951;-74
2023/04/16 09:54:54;;;;;;;13.37;9.20;;;11.00;99.90;;;;;;7387038;19;20214;-75
2023/04/16 09:57:21;;;;;;;16.60;10.33;;;11.00;99.90;;;;;;7388150;19;20265;-75
2023/04/16 09:59:51;;;;;;;15.80;9.17;;;10.90;99.90;;;;;;7388667;19;20138;-75
2023/04/16 10:02:20;;;;;;;15.93;9.50;;;10.70;99.90;;;;;;7390056;19;20154;-75
2023/04/16 10:04:50;;;;;;;12.43;8.53;;;10.70;99.90;;;;;;7389642;19;20158;-75
2023/04/16 10:07:17;;;;;;;13.17;8.63;;;10.50;99.90;;;;;;7390918;19;20130;-74
2023/04/16 10:09:43;;;;;;;14.17;9.70;;;10.70;99.90;;;;;;7388561;19;20605;-76
2023/04/16 10:12:11;;;;;;;15.37;10.47;;;10.80;99.90;;;;;;7388687;19;20623;-77
2023/04/16 10:14:38;;;;;;;15.40;9.37;;;11.00;99.90;;;;;;7386557;19;20154;-76
2023/04/16 10:17:05;;;;;;;15.03;10.13;;;11.00;99.90;;;;;;7390004;19;20161;-77
2023/04/16 10:19:31;;;;;;;15.70;10.20;;;11.00;99.90;;;;;;7388608;19;20154;-75
2023/04/16 10:21:57;;;;;;;19.80;10.93;;;11.00;99.90;;;;;;7387381;19;20137;-74
2023/04/16 10:24:28;;;;;;;15.60;10.73;;;11.00;99.90;;;;;;7388180;19;20158;-73
2023/04/16 10:26:54;;;;;;;15.77;9.77;;;11.00;99.90;;;;;;7386324;19;20649;-76
2023/04/16 10:29:22;;;;;;;15.23;9.60;;;10.80;99.90;;;;;;7388224;19;20143;-79
2023/04/16 10:31:49;;;;;;;15.00;10.43;;;10.90;99.90;;;;;;7387871;19;20162;-75
2023/04/16 10:34:15;;;;;;;16.87;10.17;;;11.00;99.90;;;;;;7386751;19;20150;-76
2023/04/16 10:36:41;;;;;;;13.73;9.63;;;11.00;99.90;;;;;;7390579;19;20590;-75
2023/04/16 10:39:12;;;;;;;15.60;9.93;;;11.20;99.90;;;;;;7387494;19;20151;-76
2023/04/16 10:41:38;;;;;;;13.17;8.93;;;11.30;99.90;;;;;;7385561;19;20250;-76
2023/04/16 10:44:08;;;;;;;12.73;8.97;;;11.50;99.90;;;;;;7386860;19;20142;-77
2023/04/16 10:46:50;;;;;;;15.43;9.17;;;11.30;99.90;;;;;;7387474;19;20151;-79
2023/04/16 10:49:18;;;;;;;11.60;8.50;;;11.40;99.90;;;;;;7389548;19;20650;-76
2023/04/16 10:51:58;;;;;;;14.40;9.17;;;11.30;99.90;;;;;;7387305;19;20150;-78
2023/04/16 10:54:29;;;;;;;13.43;9.20;;;11.40;99.90;;;;;;7384290;19;20514;-78
2023/04/16 10:57:02;;;;;;;13.90;9.07;;;11.30;99.90;;;;;;7388266;19;20158;-77
2023/04/16 10:59:34;;;;;;;10.43;8.00;;;11.40;99.90;;;;;;7385106;19;20139;-76
2023/04/16 11:02:05;;;;;;;14.97;8.90;;;11.40;99.90;;;;;;7387948;19;20246;-75
2023/04/16 11:04:37;;;;;;;11.47;8.13;;;11.60;99.90;;;;;;7386878;19;20181;-76
2023/04/16 11:07:12;;;;;;;12.23;8.27;;;11.50;99.90;;;;;;7387914;19;20135;-76
2023/04/16 11:09:44;;;;;;;13.07;7.83;;;11.60;99.90;;;;;;7389971;19;20133;-75
2023/04/16 11:12:15;;;;;;;11.23;7.30;;;11.60;99.90;;;;;;7389556;19;20166;-75
2023/04/16 11:14:41;;;;;;;11.80;8.57;;;11.60;99.90;;;;;;7385836;19;20147;-75
2023/04/16 11:17:08;;;;;;;12.33;7.77;;;11.50;99.90;;;;;;7387722;19;20174;-75
2023/04/16 11:19:37;;;;;;;10.20;6.93;;;11.60;99.90;;;;;;7387683;19;20465;-75
2023/04/16 11:22:05;;;;;;;10.50;6.88;;;11.50;99.90;;;;;;7385819;19;20526;-75
2023/04/16 11:24:34;;;;;;;9.40;6.27;;;11.40;99.90;;;;;;7386772;19;20170;-75
2023/04/16 11:27:00;;;;;;;8.43;6.17;;;11.40;99.90;;;;;;7385968;19;20138;-74
2023/04/16 11:29:26;;;;;;;11.60;5.90;;;11.30;99.90;;;;;;7387924;19;20168;-75
2023/04/16 11:31:53;;;;;;;8.77;6.37;;;11.40;99.90;;;;;;7386972;19;20559;-75
2023/04/16 11:34:19;;;;;;;9.83;6.30;;;11.40;99.90;;;;;;7381936;19;20130;-75
2023/04/16 11:36:47;;;;;;;10.83;6.37;;;11.50;99.90;;;;;;7384648;19;20163;-76
2023/04/16 11:39:12;;;;;;;9.80;6.23;;;11.50;99.90;;;;;;7386272;19;20159;-76
2023/04/16 11:41:51;;;;;;;8.90;5.77;;;11.50;99.90;;;;;;7383314;19;20187;-74
2023/04/16 11:44:27;;;;;;;7.27;5.37;;;11.30;99.90;;;;;;7387807;19;20144;-74
2023/04/16 11:46:53;;;;;;;8.80;5.73;;;11.20;99.90;;;;;;7386746;19;20627;-73
2023/04/16 11:49:29;;;;;;;6.77;5.27;;;11.20;99.90;;;;;;7387083;19;20139;-73
2023/04/16 11:51:56;;;;;;;7.07;4.87;;;11.20;99.90;;;;;;7388636;19;20138;-74
2023/04/16 11:54:23;;;;;;;5.77;4.13;;;11.20;99.90;;;;;;7387984;19;20139;-75
2023/04/16 11:56:51;;;;;;;6.80;4.70;;;11.20;99.90;;;;;;7387599;19;20143;-76
2023/04/16 11:59:21;;;;;;;6.77;4.63;;;11.20;99.90;;;;;;7388815;19;20458;-73
2023/04/16 12:01:50;;;;;;;6.07;4.30;;;11.20;99.90;;;;;;7385935;19;20186;-73
2023/04/16 12:04:19;;;;;;;5.20;3.70;;;11.30;99.90;;;;;;7389391;19;20145;-75
2023/04/16 12:07:21;;;;;;;6.20;4.70;;;11.40;99.90;;;;;;7395147;19;20633;-75
2023/04/16 12:09:47;;;;;;;6.63;4.03;;;11.30;99.90;;;;;;7393904;19;20150;-74
2023/04/16 12:12:29;;;;;;;6.00;4.23;;;11.40;99.90;;;;;;7392407;19;20590;-75
2023/04/16 12:14:56;;;;;;;6.17;3.77;;;11.30;99.90;;;;;;7391011;19;20157;-74
2023/04/16 12:17:23;;;;;;;7.00;4.10;;;11.30;99.90;;;;;;7392206;19;20142;-74
2023/04/16 12:19:57;;;;;;;4.50;3.23;;;11.30;99.90;;;;;;7391781;19;20170;-73
2023/04/16 12:22:34;;;;;;;5.83;4.00;;;11.40;99.90;;;;;;7393082;19;20134;-74
2023/04/16 12:25:02;;;;;;;6.67;3.77;;;11.50;99.90;;;;;;7390427;19;20154;-74
2023/04/16 12:27:49;;;;;;;4.83;3.50;;;11.40;99.90;;;;;;7391931;19;20510;-74
2023/04/16 12:30:19;;;;;;;4.93;3.20;;;11.30;99.90;;;;;;7392709;19;20146;-72
2023/04/16 12:32:48;;;;;;;5.63;3.70;;;11.30;99.90;;;;;;7392774;19;20137;-72
2023/04/16 12:35:29;;;;;;;4.80;3.73;;;11.10;99.90;;;;;;7389008;19;20202;-74
2023/04/16 12:37:55;;;;;;;5.70;3.73;;;11.20;99.90;;;;;;7394063;19;20141;-74
2023/04/16 12:40:21;;;;;;;4.03;3.23;;;11.20;99.90;;;;;;7390780;19;20854;-73